Time;durP1;ratioP1;P1;durP2;ratioP2;P2;SDS_P1;SDS_P2;PMS_P1;PMS_P2;Temp;Humidity;BMP_temperature;BMP_pressure;BME280_temperature;BME280_humidity;BME280_pressure;Samples;Min_cycle;Max_cycle;Signal;HPM_P1;HPM_P2
2022/01/19 15:03:15;;;;;;;;;;;28.40;46.60;;;;;;3798945;23;20385;-91
2022/01/19 15:04:47;;;;;;;;;;;28.40;46.80;;;;;;3798733;23;19921;-88
2022/01/19 15:06:18;;;;;;;;;;;28.40;47.10;;;;;;3799611;23;19920;-86
2022/01/19 15:07:52;;;;;;;;;;;28.40;47.00;;;;;;3798871;22;19921;-92
2022/01/19 15:09:23;;;;;;;;;;;28.50;47.20;;;;;;3798098;23;19940;-88
2022/01/19 15:10:55;;;;;;;;;;;28.50;48.40;;;;;;3797924;23;19921;-89
2022/01/19 15:12:27;;;;;;;;;;;28.60;48.30;;;;;;3798003;22;19991;-92
2022/01/19 15:13:59;;;;;;;;;;;28.60;48.10;;;;;;3800163;23;19928;-91
2022/01/19 15:15:37;;;;;;;;;;;28.60;48.30;;;;;;3798522;22;19921;-92
2022/01/19 15:17:26;;;;;;;;;;;28.60;48.70;;;;;;3800985;22;19996;-89
2022/01/19 15:19:03;;;;;;;;;;;28.50;47.00;;;;;;3803340;23;19905;-94
2022/01/19 15:20:55;;;;;;;;;;;28.50;46.80;;;;;;3801460;23;19921;-92
2022/01/19 15:22:27;;;;;;;;;;;28.50;46.90;;;;;;3799325;22;19920;-92
2022/01/19 15:24:04;;;;;;;;;;;28.50;46.60;;;;;;3799074;23;19921;-91
2022/01/19 15:25:37;;;;;;;;;;;28.50;46.70;;;;;;3797504;23;19921;-91
2022/01/19 15:27:09;;;;;;;;;;;28.50;46.50;;;;;;3798189;22;19921;-90
2022/01/19 15:28:41;;;;;;;;;;;28.50;46.30;;;;;;3797656;23;20299;-91
2022/01/19 15:30:12;;;;;;;;;;;28.50;46.10;;;;;;3798605;22;19923;-91
2022/01/19 15:31:48;;;;;;;;;;;28.60;46.10;;;;;;3799639;23;19951;-92
2022/01/19 15:33:20;;;;;;;;;;;28.50;45.90;;;;;;3796793;22;19972;-92
2022/01/19 15:34:53;;;;;;;;;;;28.60;45.80;;;;;;3800280;23;19936;-90
2022/01/19 15:36:25;;;;;;;;;;;28.60;45.70;;;;;;3797104;23;19921;-89
2022/01/19 15:37:57;;;;;;;;;;;28.60;45.60;;;;;;3799572;22;19921;-91
2022/01/19 15:39:28;;;;;;;;;;;28.60;45.50;;;;;;3799863;23;19925;-91
2022/01/19 15:41:01;;;;;;;;;;;28.60;45.40;;;;;;3797109;23;19921;-92
2022/01/19 15:42:32;;;;;;;;;;;28.60;45.30;;;;;;3798777;22;19921;-92
2022/01/19 15:44:05;;;;;;;;;;;28.60;45.10;;;;;;3798777;23;20289;-93
2022/01/19 15:45:37;;;;;;;;;;;28.60;44.70;;;;;;3800301;22;19925;-93
2022/01/19 15:49:33;;;;;;;;;;;28.60;45.00;;;;;;3797571;23;19921;-92
2022/01/19 15:51:13;;;;;;;;;;;28.60;45.10;;;;;;3797650;23;19985;-90
2022/01/19 15:56:50;;;;;;;;;;;28.70;44.90;;;;;;3797589;23;20379;-91
2022/01/19 15:58:35;;;;;;;;;;;28.70;44.80;;;;;;3791345;22;20347;-91
2022/01/19 16:04:31;;;;;;;;;;;28.70;44.60;;;;;;3795695;23;19974;-89
2022/01/19 16:06:22;;;;;;;;;;;28.70;44.50;;;;;;3800039;23;19921;-89
2022/01/19 16:07:55;;;;;;;;;;;28.70;44.40;;;;;;3799284;23;19921;-89
2022/01/19 16:09:27;;;;;;;;;;;28.60;44.30;;;;;;3798182;23;19921;-89
2022/01/19 16:10:59;;;;;;;;;;;28.70;44.40;;;;;;3799600;23;19952;-90
2022/01/19 16:12:31;;;;;;;;;;;28.70;44.40;;;;;;3797771;23;19936;-89
2022/01/19 16:14:06;;;;;;;;;;;28.70;44.40;;;;;;3799284;23;19921;-92
2022/01/19 16:15:38;;;;;;;;;;;28.70;44.40;;;;;;3799152;22;19925;-91
2022/01/19 16:17:10;;;;;;;;;;;28.70;44.40;;;;;;3796907;22;19988;-89
2022/01/19 16:18:42;;;;;;;;;;;28.70;44.30;;;;;;3797934;23;19925;-88
2022/01/19 16:20:14;;;;;;;;;;;28.70;44.40;;;;;;3797705;23;20004;-90
2022/01/19 16:21:46;;;;;;;;;;;28.70;44.40;;;;;;3798483;23;19925;-87
2022/01/19 16:27:06;;;;;;;;;;;28.70;44.20;;;;;;3799120;23;19917;-90
2022/01/19 16:28:39;;;;;;;;;;;28.70;44.20;;;;;;3798793;23;19949;-90
2022/01/19 16:30:11;;;;;;;;;;;28.70;44.80;;;;;;3796436;22;19925;-89
2022/01/19 16:32:05;;;;;;;;;;;28.70;44.10;;;;;;3799881;23;19931;-89
2022/01/19 16:33:48;;;;;;;;;;;28.60;44.10;;;;;;3799161;23;19921;-88
2022/01/19 16:35:27;;;;;;;;;;;28.60;44.10;;;;;;3797104;23;19921;-87
2022/01/19 16:37:18;;;;;;;;;;;28.60;44.10;;;;;;3799476;23;19921;-88
2022/01/19 16:39:05;;;;;;;;;;;28.60;44.00;;;;;;3798316;23;19968;-88
2022/01/19 16:40:41;;;;;;;;;;;28.70;44.10;;;;;;3797811;23;20286;-88
2022/01/19 16:42:13;;;;;;;;;;;28.60;43.90;;;;;;3795253;22;19927;-89
2022/01/19 16:43:46;;;;;;;;;;;28.60;44.00;;;;;;3797885;23;19925;-88
2022/01/19 16:45:19;;;;;;;;;;;28.60;44.10;;;;;;3784380;22;19925;-89
2022/01/19 16:46:52;;;;;;;;;;;28.60;44.00;;;;;;3799401;23;19921;-89
2022/01/19 16:48:41;;;;;;;;;;;28.60;43.90;;;;;;3780951;22;19921;-88
2022/01/19 16:50:21;;;;;;;;;;;28.60;44.00;;;;;;3798030;23;19937;-88
2022/01/19 16:51:53;;;;;;;;;;;28.60;43.90;;;;;;3798706;23;19921;-89
2022/01/19 16:53:25;;;;;;;;;;;28.60;43.90;;;;;;3795851;22;19921;-89
2022/01/19 16:54:59;;;;;;;;;;;28.60;43.90;;;;;;3798725;23;19921;-88
2022/01/19 16:56:30;;;;;;;;;;;28.60;43.70;;;;;;3798239;23;19921;-89
2022/01/19 16:58:02;;;;;;;;;;;28.60;43.80;;;;;;3796829;22;20267;-89
2022/01/19 16:59:34;;;;;;;;;;;28.60;43.90;;;;;;3798343;23;20236;-89
2022/01/19 17:01:06;;;;;;;;;;;28.60;43.80;;;;;;3796252;22;19921;-88
2022/01/19 17:51:40;;;;;;;;;;;28.10;43.70;;;;;;3781538;23;19921;-87
2022/01/19 17:53:12;;;;;;;;;;;28.20;43.80;;;;;;3780113;23;19975;-90
2022/01/19 17:54:44;;;;;;;;;;;28.10;40.70;;;;;;3779318;23;20000;-90
2022/01/19 17:56:15;;;;;;;;;;;27.60;40.60;;;;;;3780780;23;19944;-88
2022/01/19 17:57:47;;;;;;;;;;;27.30;41.10;;;;;;3779914;23;19988;-88
2022/01/19 17:59:20;;;;;;;;;;;27.10;41.70;;;;;;3781224;23;20311;-90
2022/01/19 18:00:52;;;;;;;;;;;27.00;42.10;;;;;;3779870;22;20008;-88
2022/01/19 18:02:24;;;;;;;;;;;26.90;43.00;;;;;;3778900;22;19926;-88
2022/01/19 18:03:56;;;;;;;;;;;26.80;43.40;;;;;;3780619;23;19993;-90
2022/01/19 18:05:28;;;;;;;;;;;26.70;43.50;;;;;;3779238;23;19926;-88
2022/01/19 18:07:01;;;;;;;;;;;26.70;43.80;;;;;;3780488;23;19921;-89
2022/01/19 18:08:32;;;;;;;;;;;26.60;43.90;;;;;;3779615;23;20526;-86
2022/01/19 18:10:05;;;;;;;;;;;26.50;44.30;;;;;;3779531;23;20371;-90
2022/01/19 18:11:36;;;;;;;;;;;26.70;44.60;;;;;;3779736;23;19922;-87
2022/01/19 18:13:08;;;;;;;;;;;26.80;44.30;;;;;;3778274;22;19921;-87
2022/01/19 18:14:40;;;;;;;;;;;27.00;44.20;;;;;;3780132;23;19925;-87
2022/01/19 18:16:12;;;;;;;;;;;27.10;44.00;;;;;;3779748;22;19975;-87
2022/01/19 18:17:46;;;;;;;;;;;27.20;43.80;;;;;;3779272;22;19921;-87
2022/01/19 18:19:18;;;;;;;;;;;27.30;43.80;;;;;;3783178;23;20004;-88
2022/01/19 18:20:50;;;;;;;;;;;27.30;43.90;;;;;;3780746;23;19925;-87
2022/01/19 18:22:23;;;;;;;;;;;27.30;43.80;;;;;;3779583;22;20276;-88
2022/01/19 18:23:54;;;;;;;;;;;27.30;43.80;;;;;;3779690;23;19996;-88
2022/01/19 18:25:26;;;;;;;;;;;27.40;43.80;;;;;;3779367;23;19925;-89
2022/01/19 18:26:58;;;;;;;;;;;27.40;44.00;;;;;;3780890;23;20241;-89
2022/01/19 18:28:30;;;;;;;;;;;27.50;44.00;;;;;;3779654;22;19921;-91
2022/01/19 18:30:01;;;;;;;;;;;27.50;43.90;;;;;;3783272;23;19922;-89
2022/01/19 18:31:33;;;;;;;;;;;27.50;43.90;;;;;;3777946;22;19972;-89
2022/01/19 18:33:05;;;;;;;;;;;27.50;43.90;;;;;;3779023;22;19925;-89
2022/01/19 18:34:36;;;;;;;;;;;27.50;43.90;;;;;;3779752;23;20028;-90
2022/01/19 18:36:08;;;;;;;;;;;27.60;44.00;;;;;;3779762;23;19921;-88
2022/01/19 18:37:43;;;;;;;;;;;27.60;44.00;;;;;;3778929;22;19922;-89
2022/01/19 18:39:15;;;;;;;;;;;27.60;43.90;;;;;;3779571;23;19937;-89
